createdAt,value
2022-08-22T00:00:13.507Z,31.89
2022-08-22T00:02:41.880Z,26.79
2022-08-22T00:03:08.326Z,29.69
2022-08-22T00:03:11.649Z,32.38
2022-08-22T00:03:11.734Z,31.11
2022-08-22T00:03:17.566Z,32.29
2022-08-22T00:05:59.582Z,31.90
2022-08-22T00:08:55.043Z,31.61
2022-08-22T00:11:34.982Z,31.55
2022-08-22T00:14:39.921Z,31.89
2022-08-22T00:17:23.652Z,32.05
2022-08-22T00:19:57.382Z,32.45
2022-08-22T00:23:10.168Z,32.38
2022-08-22T00:25:43.875Z,32.58
2022-08-22T00:28:22.798Z,31.81
2022-08-22T00:30:59.981Z,31.60
2022-08-22T00:33:46.465Z,31.02
2022-08-22T00:36:47.944Z,30.79
2022-08-22T00:39:32.737Z,32.56
2022-08-22T00:42:04.469Z,33.32
2022-08-22T00:44:41.728Z,31.81
2022-08-22T00:47:19.919Z,31.21
2022-08-22T00:50:04.739Z,30.93
2022-08-22T00:52:42.146Z,31.14
2022-08-22T00:55:35.065Z,30.80
2022-08-22T00:58:27.765Z,31.72
2022-08-22T01:01:01.148Z,32.22
2022-08-22T01:03:47.223Z,31.10
2022-08-22T01:06:27.131Z,33.13
2022-08-22T01:09:24.436Z,31.80
2022-08-22T01:12:25.882Z,33.10
2022-08-22T01:15:00.779Z,33.14
2022-08-22T01:17:45.695Z,33.55
2022-08-22T01:20:19.788Z,33.07
2022-08-22T01:23:13.666Z,33.48
2022-08-22T01:25:59.649Z,33.35
2022-08-22T01:28:47.384Z,33.58
2022-08-22T01:31:42.826Z,31.88
2022-08-22T01:34:23.288Z,32.06
2022-08-22T01:37:27.692Z,32.06
2022-08-22T01:40:14.037Z,31.49
2022-08-22T01:42:53.962Z,31.41
2022-08-22T01:45:43.033Z,30.95
2022-08-22T01:48:16.690Z,31.01
2022-08-22T01:50:58.734Z,30.75
2022-08-22T01:53:41.022Z,30.73
2022-08-22T01:56:16.669Z,30.54
2022-08-22T01:59:03.731Z,29.95
2022-08-22T02:01:40.649Z,29.88
2022-08-22T02:04:29.146Z,29.70
2022-08-22T02:07:29.163Z,29.58
2022-08-22T02:10:06.673Z,29.18
2022-08-22T02:12:53.718Z,28.94
2022-08-22T02:15:22.790Z,28.93
2022-08-22T02:18:06.115Z,28.77
2022-08-22T02:20:49.458Z,28.76
2022-08-22T02:23:47.175Z,28.72
2022-08-22T02:26:20.746Z,28.73
2022-08-22T02:29:12.754Z,28.53
2022-08-22T02:32:01.750Z,28.46
2022-08-22T02:34:54.123Z,28.34
2022-08-22T02:37:55.380Z,28.24
2022-08-22T02:40:35.029Z,28.11
2022-08-22T02:43:27.863Z,27.91
2022-08-22T02:46:01.449Z,27.57
2022-08-22T02:48:37.615Z,27.51
2022-08-22T02:51:28.764Z,27.51
2022-08-22T02:53:59.380Z,27.30
2022-08-22T02:56:30.195Z,27.19
2022-08-22T02:59:28.190Z,26.94
2022-08-22T03:01:57.088Z,26.77
2022-08-22T03:04:25.109Z,26.76
2022-08-22T03:07:17.191Z,26.77
2022-08-22T03:10:06.069Z,26.63
2022-08-22T03:12:43.018Z,26.64
2022-08-22T03:15:35.950Z,26.33
2022-08-22T03:18:25.437Z,26.15
2022-08-22T03:20:56.487Z,26.07
2022-08-22T03:23:37.427Z,26.03
2022-08-22T03:26:29.586Z,25.94
2022-08-22T03:29:10.893Z,25.88
2022-08-22T03:31:39.383Z,25.89
2022-08-22T03:34:25.592Z,25.92
2022-08-22T03:37:18.297Z,25.61
2022-08-22T03:39:55.142Z,25.62
2022-08-22T03:42:44.790Z,25.75
2022-08-22T03:45:44.035Z,25.59
2022-08-22T03:48:25.491Z,25.53
2022-08-22T03:51:01.111Z,25.48
2022-08-22T03:53:35.090Z,25.49
2022-08-22T03:56:14.675Z,25.40
2022-08-22T03:59:10.147Z,25.26
2022-08-22T04:01:59.062Z,25.25
2022-08-22T04:04:50.123Z,25.22
2022-08-22T04:07:39.161Z,25.11
2022-08-22T04:10:39.894Z,24.97
2022-08-22T04:13:24.767Z,25.01
2022-08-22T04:16:04.845Z,24.99
2022-08-22T04:18:41.790Z,24.69
2022-08-22T04:21:28.090Z,24.58
2022-08-22T04:24:34.219Z,24.53
2022-08-22T04:27:45.371Z,24.50
2022-08-22T04:30:26.883Z,24.40
2022-08-22T04:33:08.052Z,24.31
2022-08-22T04:35:52.790Z,24.33
2022-08-22T04:38:40.159Z,24.28
2022-08-22T04:41:15.075Z,24.28
2022-08-22T04:43:48.105Z,24.23
2022-08-22T04:46:32.103Z,24.24
2022-08-22T04:49:26.863Z,24.21
2022-08-22T04:52:29.436Z,23.93
2022-08-22T04:55:09.687Z,24.01
2022-08-22T04:58:18.595Z,23.94
2022-08-22T05:01:09.904Z,23.91
2022-08-22T05:03:44.979Z,23.95
2022-08-22T05:06:14.354Z,23.93
2022-08-22T05:08:45.805Z,23.89
2022-08-22T05:11:19.476Z,23.92
2022-08-22T05:14:07.132Z,23.89
2022-08-22T05:16:48.986Z,23.86
2022-08-22T05:19:28.391Z,23.75
2022-08-22T05:21:59.468Z,23.66
2022-08-22T05:24:43.055Z,23.57
2022-08-22T05:27:26.282Z,23.51
2022-08-22T05:30:06.287Z,23.47
2022-08-22T05:33:00.666Z,23.28
2022-08-22T05:35:36.536Z,23.19
2022-08-22T05:38:08.032Z,23.00
2022-08-22T05:40:37.734Z,22.99
2022-08-22T05:43:07.216Z,22.97
2022-08-22T05:45:35.805Z,23.01
2022-08-22T05:48:07.563Z,22.92
2022-08-22T05:50:38.288Z,22.99
2022-08-22T05:53:32.336Z,23.02
2022-08-22T05:56:37.216Z,23.01
2022-08-22T05:59:08.196Z,23.02
2022-08-22T06:01:43.680Z,22.93
2022-08-22T06:04:54.021Z,22.83
2022-08-22T06:07:28.878Z,22.81
2022-08-22T06:10:08.781Z,22.91
2022-08-22T06:12:43.118Z,22.93
2022-08-22T06:15:21.029Z,22.89
2022-08-22T06:17:52.390Z,22.80
2022-08-22T06:20:28.714Z,22.72
2022-08-22T06:23:00.520Z,22.51
2022-08-22T06:25:36.339Z,22.39
2022-08-22T06:28:13.731Z,22.36
2022-08-22T06:30:41.988Z,22.39
2022-08-22T06:33:14.739Z,22.29
2022-08-22T06:35:50.304Z,22.34
2022-08-22T06:38:20.201Z,22.10
2022-08-22T06:40:49.983Z,21.98
2022-08-22T06:43:18.623Z,21.85
2022-08-22T06:45:50.278Z,21.78
2022-08-22T06:48:20.671Z,21.77
2022-08-22T06:50:53.030Z,21.80
2022-08-22T06:53:48.176Z,21.77
2022-08-22T06:56:27.606Z,21.79
2022-08-22T06:59:00.768Z,21.87
2022-08-22T07:01:34.302Z,21.95
2022-08-22T07:04:08.507Z,22.06
2022-08-22T07:06:38.290Z,22.27
2022-08-22T07:09:16.197Z,22.30
2022-08-22T07:11:47.198Z,22.35
2022-08-22T07:14:28.969Z,22.38
2022-08-22T07:17:07.722Z,22.37
2022-08-22T07:19:38.992Z,22.35
2022-08-22T07:22:26.715Z,22.32
2022-08-22T07:25:20.862Z,22.33
2022-08-22T07:28:06.937Z,22.38
2022-08-22T07:30:52.377Z,22.31
2022-08-22T07:33:39.161Z,22.27
2022-08-22T07:36:23.268Z,22.24
2022-08-22T07:39:11.207Z,22.28
2022-08-22T07:42:02.254Z,22.31
2022-08-22T07:45:02.030Z,22.30
2022-08-22T07:48:10.916Z,22.33
2022-08-22T07:50:47.534Z,22.38
2022-08-22T07:53:35.750Z,22.31
2022-08-22T07:56:08.998Z,22.27
2022-08-22T07:58:39.451Z,22.23
2022-08-22T08:01:15.243Z,22.19
2022-08-22T08:03:47.175Z,22.18
2022-08-22T08:06:15.311Z,22.16
2022-08-22T08:08:45.479Z,22.18
2022-08-22T08:11:18.474Z,22.11
2022-08-22T08:13:48.954Z,21.98
2022-08-22T08:16:28.254Z,21.99
2022-08-22T08:18:58.404Z,21.94
2022-08-22T08:21:34.127Z,21.89
2022-08-22T08:24:03.982Z,21.76
2022-08-22T08:26:48.144Z,21.66
2022-08-22T08:29:18.307Z,21.55
2022-08-22T08:31:50.583Z,21.45
2022-08-22T08:34:25.413Z,21.45
2022-08-22T08:37:12.878Z,21.48
2022-08-22T08:39:46.088Z,21.40
2022-08-22T08:42:25.932Z,21.39
2022-08-22T08:45:18.669Z,21.29
2022-08-22T08:48:10.803Z,21.14
2022-08-22T08:50:45.278Z,21.21
2022-08-22T08:53:51.273Z,21.15
2022-08-22T08:56:54.250Z,21.03
2022-08-22T08:59:43.155Z,21.04
2022-08-22T09:02:35.779Z,21.10
2022-08-22T09:05:37.338Z,21.07
2022-08-22T09:08:14.331Z,21.02
2022-08-22T09:14:27.185Z,20.80
2022-08-22T09:17:19.437Z,20.82
2022-08-22T09:20:26.267Z,20.75
2022-08-22T09:23:35.898Z,20.81
2022-08-22T09:26:20.431Z,20.78
2022-08-22T09:28:59.074Z,20.61
2022-08-22T09:31:44.807Z,20.60
2022-08-22T09:34:23.962Z,20.74
2022-08-22T09:37:05.425Z,20.80
2022-08-22T09:39:51.483Z,20.70
2022-08-22T09:40:16.098Z,20.91
2022-08-22T09:42:30.250Z,20.74
2022-08-22T09:45:19.748Z,20.68
2022-08-22T09:48:06.354Z,20.77
2022-08-22T09:51:20.010Z,20.76
2022-08-22T09:54:16.170Z,20.71
2022-08-22T09:56:46.910Z,20.66
2022-08-22T09:59:26.568Z,20.55
2022-08-22T10:01:55.085Z,20.38
2022-08-22T10:04:40.327Z,20.43
2022-08-22T10:07:13.369Z,20.45
2022-08-22T10:10:04.444Z,20.33
2022-08-22T10:13:14.255Z,20.10
2022-08-22T10:16:17.291Z,19.90
2022-08-22T10:19:09.069Z,19.87
2022-08-22T10:21:42.527Z,20.03
2022-08-22T10:24:54.741Z,19.91
2022-08-22T10:27:54.867Z,19.61
2022-08-22T10:30:43.998Z,19.58
2022-08-22T10:33:34.715Z,19.47
2022-08-22T10:36:12.280Z,18.91
2022-08-22T10:38:59.162Z,18.99
2022-08-22T10:41:58.070Z,19.10
2022-08-22T10:44:40.271Z,19.01
2022-08-22T10:47:22.762Z,19.01
2022-08-22T10:49:53.428Z,19.15
2022-08-22T10:52:56.498Z,19.13
2022-08-22T10:55:31.492Z,19.13
2022-08-22T10:58:10.477Z,19.17
2022-08-22T11:00:55.084Z,19.06
2022-08-22T11:03:41.259Z,19.07
2022-08-22T11:06:30.740Z,19.07
2022-08-22T11:09:09.613Z,18.95
2022-08-22T11:11:57.048Z,18.96
2022-08-22T11:14:48.681Z,18.98
2022-08-22T11:17:32.443Z,19.03
2022-08-22T11:20:32.315Z,18.77
2022-08-22T11:23:21.572Z,18.74
2022-08-22T11:26:07.798Z,18.70
2022-08-22T11:29:14.148Z,18.62
2022-08-22T11:31:51.569Z,18.74
2022-08-22T11:34:34.942Z,18.75
2022-08-22T11:37:43.020Z,18.65
2022-08-22T11:40:37.735Z,18.63
2022-08-22T11:43:32.510Z,18.58
2022-08-22T11:46:20.012Z,18.47
2022-08-22T11:49:06.436Z,18.51
2022-08-22T11:51:58.012Z,18.55
2022-08-22T11:54:54.633Z,18.51
2022-08-22T11:57:31.364Z,18.52
2022-08-22T12:00:08.875Z,18.46
2022-08-22T12:02:48.981Z,18.34
2022-08-22T12:05:26.241Z,18.32
2022-08-22T12:08:31.561Z,18.35
2022-08-22T12:11:00.189Z,18.22
2022-08-22T12:13:40.520Z,18.11
2022-08-22T12:16:24.049Z,18.01
2022-08-22T12:18:55.774Z,17.95
2022-08-22T12:21:23.765Z,17.86
2022-08-22T12:24:21.246Z,17.89
2022-08-22T12:27:08.747Z,17.96
2022-08-22T12:29:45.889Z,17.78
2022-08-22T12:32:45.733Z,17.87
2022-08-22T12:35:17.006Z,17.79
2022-08-22T12:38:11.858Z,17.94
2022-08-22T12:41:00.583Z,17.81
2022-08-22T12:43:49.667Z,17.80
2022-08-22T12:46:37.840Z,17.89
2022-08-22T12:49:37.143Z,17.82
2022-08-22T12:52:24.169Z,17.84
2022-08-22T12:54:54.965Z,17.83
2022-08-22T12:57:40.423Z,17.70
2022-08-22T13:00:17.765Z,17.51
2022-08-22T13:02:56.238Z,17.52
2022-08-22T13:05:27.038Z,17.55
2022-08-22T13:08:02.408Z,17.54
2022-08-22T13:10:57.470Z,17.58
2022-08-22T13:13:40.967Z,17.69
2022-08-22T13:16:14.470Z,17.83
2022-08-22T13:18:53.479Z,17.80
2022-08-22T13:21:32.132Z,17.90
2022-08-22T13:24:12.686Z,17.91
2022-08-22T13:27:05.643Z,18.02
2022-08-22T13:29:45.903Z,18.01
2022-08-22T13:32:33.619Z,18.03
2022-08-22T13:35:03.605Z,18.14
2022-08-22T13:37:39.139Z,18.09
2022-08-22T13:40:15.414Z,17.96
2022-08-22T13:42:54.185Z,18.08
2022-08-22T13:45:29.201Z,17.94
2022-08-22T13:48:03.802Z,18.08
2022-08-22T13:50:53.405Z,17.86
2022-08-22T13:53:32.795Z,17.93
2022-08-22T13:56:08.155Z,18.11
2022-08-22T13:59:07.636Z,18.08
2022-08-22T14:01:54.063Z,18.11
2022-08-22T14:04:31.921Z,18.21
2022-08-22T14:07:04.597Z,18.37
2022-08-22T14:09:54.390Z,18.49
2022-08-22T14:12:50.054Z,18.55
2022-08-22T14:15:26.702Z,18.57
2022-08-22T14:18:30.375Z,18.72
2022-08-22T14:21:20.042Z,18.80
2022-08-22T14:23:52.355Z,18.96
2022-08-22T14:26:37.312Z,19.08
2022-08-22T14:29:18.689Z,19.23
2022-08-22T14:31:58.369Z,19.28
2022-08-22T14:34:27.690Z,19.32
2022-08-22T14:37:08.978Z,19.33
2022-08-22T14:39:56.337Z,19.34
2022-08-22T14:42:34.142Z,19.41
2022-08-22T14:45:30.245Z,19.38
2022-08-22T14:48:30.396Z,19.42
2022-08-22T14:50:53.485Z,19.43
2022-08-22T14:53:29.620Z,19.37
2022-08-22T14:56:06.381Z,19.44
2022-08-22T14:58:47.144Z,19.41
2022-08-22T15:01:19.588Z,19.47
2022-08-22T15:04:11.787Z,19.48
2022-08-22T15:06:47.683Z,19.58
2022-08-22T15:09:40.580Z,19.72
2022-08-22T15:12:38.671Z,19.84
2022-08-22T15:15:29.297Z,20.07
2022-08-22T15:18:05.373Z,20.19
2022-08-22T15:20:49.081Z,20.49
2022-08-22T15:23:23.146Z,20.63
2022-08-22T15:26:04.051Z,20.73
2022-08-22T15:28:53.327Z,20.93
2022-08-22T15:31:22.054Z,21.06
2022-08-22T15:33:51.295Z,21.17
2022-08-22T15:36:26.088Z,21.16
2022-08-22T15:39:31.322Z,21.33
2022-08-22T15:42:05.491Z,21.52
2022-08-22T15:44:39.243Z,21.64
2022-08-22T15:47:27.691Z,21.56
2022-08-22T15:50:05.864Z,21.63
2022-08-22T15:52:59.124Z,21.76
2022-08-22T15:55:34.395Z,21.84
2022-08-22T15:58:13.217Z,21.86
2022-08-22T16:01:18.916Z,21.80
2022-08-22T16:04:09.084Z,22.12
2022-08-22T16:06:53.847Z,22.18
2022-08-22T16:09:36.515Z,22.19
2022-08-22T16:12:09.278Z,22.34
2022-08-22T16:14:37.243Z,22.42
2022-08-22T16:17:27.767Z,22.70
2022-08-22T16:20:20.009Z,22.61
2022-08-22T16:22:57.774Z,22.92
2022-08-22T16:25:47.148Z,23.04
2022-08-22T16:29:02.552Z,23.18
2022-08-22T16:31:32.616Z,23.21
2022-08-22T16:34:19.007Z,23.43
2022-08-22T16:36:51.931Z,23.33
2022-08-22T16:39:22.957Z,23.47
2022-08-22T16:42:15.496Z,23.59
2022-08-22T16:44:56.798Z,23.76
2022-08-22T16:47:24.769Z,23.78
2022-08-22T16:49:52.723Z,23.83
2022-08-22T16:52:26.617Z,24.11
2022-08-22T16:54:58.110Z,24.43
2022-08-22T16:57:54.470Z,24.43
2022-08-22T17:00:40.299Z,24.63
2022-08-22T17:03:17.620Z,24.82
2022-08-22T17:06:17.972Z,24.81
2022-08-22T17:08:51.604Z,25.11
2022-08-22T17:11:30.720Z,25.24
2022-08-22T17:14:28.825Z,25.10
2022-08-22T17:17:08.499Z,25.39
2022-08-22T17:20:17.875Z,25.35
2022-08-22T17:22:45.859Z,25.51
2022-08-22T17:25:33.299Z,25.82
2022-08-22T17:28:25.018Z,25.63
2022-08-22T17:31:14.085Z,26.30
2022-08-22T17:33:42.059Z,26.35
2022-08-22T17:36:26.837Z,26.37
2022-08-22T17:39:04.130Z,26.32
2022-08-22T17:41:38.251Z,26.29
2022-08-22T17:44:20.317Z,26.24
2022-08-22T17:47:03.985Z,26.58
2022-08-22T17:49:45.231Z,26.71
2022-08-22T17:52:41.286Z,26.92
2022-08-22T17:55:19.655Z,26.84
2022-08-22T17:57:56.958Z,26.58
2022-08-22T18:00:31.855Z,26.74
2022-08-22T18:03:14.955Z,27.24
2022-08-22T18:06:31.906Z,27.34
2022-08-22T18:09:17.066Z,27.63
2022-08-22T18:11:57.529Z,27.34
2022-08-22T18:14:41.154Z,27.64
2022-08-22T18:17:20.266Z,28.05
2022-08-22T18:19:54.359Z,28.16
2022-08-22T18:22:27.715Z,28.01
2022-08-22T18:25:19.422Z,28.22
2022-08-22T18:27:52.710Z,28.35
2022-08-22T18:30:23.590Z,28.18
2022-08-22T18:33:20.310Z,28.09
2022-08-22T18:35:56.518Z,29.05
2022-08-22T18:38:32.298Z,28.69
2022-08-22T18:41:10.277Z,28.69
2022-08-22T18:43:51.363Z,29.17
2022-08-22T18:46:32.658Z,29.45
2022-08-22T18:49:20.746Z,28.91
2022-08-22T18:52:07.226Z,29.17
2022-08-22T18:54:48.551Z,29.32
2022-08-22T18:57:40.289Z,29.48
2022-08-22T19:00:21.843Z,29.56
2022-08-22T19:03:05.106Z,29.60
2022-08-22T19:05:51.667Z,29.83
2022-08-22T19:08:40.831Z,29.80
2022-08-22T19:11:27.125Z,30.23
2022-08-22T19:14:22.175Z,30.03
2022-08-22T19:17:05.816Z,30.56
2022-08-22T19:19:42.993Z,30.82
2022-08-22T19:22:30.385Z,30.81
2022-08-22T19:25:10.249Z,30.90
2022-08-22T19:27:40.875Z,30.76
2022-08-22T19:30:34.596Z,30.56
2022-08-22T19:33:06.419Z,30.56
2022-08-22T19:35:39.153Z,30.47
2022-08-22T19:38:09.481Z,30.84
2022-08-22T19:40:46.618Z,31.84
2022-08-22T19:43:35.334Z,32.35
2022-08-22T19:46:07.077Z,31.41
2022-08-22T19:48:45.750Z,31.89
2022-08-22T19:51:29.649Z,31.73
2022-08-22T19:54:12.366Z,31.62
2022-08-22T19:56:58.903Z,31.22
2022-08-22T19:59:39.203Z,31.75
2022-08-22T20:02:50.142Z,31.90
2022-08-22T20:05:26.073Z,31.58
2022-08-22T20:08:08.656Z,31.91
2022-08-22T20:10:36.649Z,32.08
2022-08-22T20:13:12.229Z,31.88
2022-08-22T20:16:12.801Z,31.50
2022-08-22T20:19:08.441Z,31.87
2022-08-22T20:22:15.763Z,31.88
2022-08-22T20:25:17.193Z,32.12
2022-08-22T20:28:08.219Z,32.31
2022-08-22T20:30:45.107Z,32.11
2022-08-22T20:33:25.929Z,31.92
2022-08-22T20:35:56.502Z,31.75
2022-08-22T20:38:32.819Z,31.74
2022-08-22T20:41:13.492Z,31.70
2022-08-22T20:43:51.315Z,32.27
2022-08-22T20:46:47.765Z,32.16
2022-08-22T20:49:23.491Z,31.95
2022-08-22T20:51:53.159Z,32.10
2022-08-22T20:54:28.223Z,31.51
2022-08-22T20:57:02.361Z,31.80
2022-08-22T20:59:35.034Z,31.75
2022-08-22T21:02:34.969Z,31.48
2022-08-22T21:05:04.055Z,31.84
2022-08-22T21:07:37.941Z,32.35
2022-08-22T21:10:10.307Z,32.66
2022-08-22T21:12:38.315Z,32.72
2022-08-22T21:15:06.766Z,31.89
2022-08-22T21:17:39.101Z,31.92
2022-08-22T21:20:22.247Z,31.49
2022-08-22T21:22:50.810Z,31.76
2022-08-22T21:25:21.189Z,31.36
2022-08-22T21:27:49.647Z,31.03
2022-08-22T21:30:26.232Z,31.15
2022-08-22T21:32:56.108Z,31.14
2022-08-22T21:35:34.751Z,30.83
2022-08-22T21:38:03.076Z,30.89
2022-08-22T21:40:39.289Z,30.82
2022-08-22T21:43:12.847Z,30.72
2022-08-22T21:45:40.413Z,30.77
2022-08-22T21:49:05.654Z,30.70
2022-08-22T21:51:44.391Z,30.68
2022-08-22T21:54:25.513Z,30.78
2022-08-22T21:56:56.227Z,30.72
2022-08-22T21:59:43.099Z,30.67
2022-08-22T22:02:35.308Z,30.54
2022-08-22T22:05:11.672Z,30.34
2022-08-22T22:07:42.117Z,30.33
2022-08-22T22:10:17.362Z,30.20
2022-08-22T22:12:46.974Z,30.26
2022-08-22T22:15:21.951Z,30.17
2022-08-22T22:17:50.859Z,30.07
2022-08-22T22:20:23.406Z,30.09
2022-08-22T22:22:51.550Z,30.07
2022-08-22T22:25:39.684Z,30.02
2022-08-22T22:28:21.625Z,30.05
2022-08-22T22:30:52.914Z,29.94
2022-08-22T22:33:31.832Z,29.82
2022-08-22T22:36:05.770Z,29.78
2022-08-22T22:38:33.897Z,29.86
2022-08-22T22:41:07.119Z,29.94
2022-08-22T22:43:35.484Z,29.95
2022-08-22T22:46:03.530Z,29.93
2022-08-22T22:48:31.576Z,29.92
2022-08-22T22:51:00.028Z,29.99
2022-08-22T22:53:38.156Z,29.86
2022-08-22T22:56:09.914Z,29.65
2022-08-22T22:58:38.954Z,29.62
2022-08-22T23:01:17.131Z,29.22
2022-08-22T23:03:45.941Z,28.92
2022-08-22T23:06:19.960Z,28.90
2022-08-22T23:08:53.370Z,28.82
2022-08-22T23:11:27.383Z,28.73
2022-08-22T23:13:58.001Z,28.64
2022-08-22T23:16:29.211Z,28.75
2022-08-22T23:18:58.488Z,28.87
2022-08-22T23:21:29.421Z,28.93
2022-08-22T23:24:05.411Z,29.07
2022-08-22T23:26:33.533Z,29.21
2022-08-22T23:29:07.004Z,29.08
2022-08-22T23:31:53.080Z,29.01
2022-08-22T23:34:26.623Z,29.01
2022-08-22T23:36:58.173Z,29.02
2022-08-22T23:39:30.496Z,29.17
2022-08-22T23:41:59.306Z,28.91
2022-08-22T23:44:30.251Z,28.92
2022-08-22T23:46:59.075Z,29.21
2022-08-22T23:49:28.187Z,29.03
2022-08-22T23:51:56.531Z,29.09
2022-08-22T23:54:25.966Z,29.20
2022-08-22T23:56:58.819Z,29.17
2022-08-22T23:59:31.483Z,29.10
